Time;durP1;ratioP1;P1;durP2;ratioP2;P2;SDS_P1;SDS_P2;PMS_P1;PMS_P2;Temp;Humidity;BMP_temperature;BMP_pressure;BME280_temperature;BME280_humidity;BME280_pressure;Samples;Min_cycle;Max_cycle;Signal;HPM_P1;HPM_P2
2023/01/28 00:01:55;;;;;;;0.70;0.70;;;1.60;74.70;;;0.44;62.90;95145.63;5059932;28;20195;-38
2023/01/28 00:04:22;;;;;;;0.73;0.73;;;1.70;74.70;;;0.44;62.90;95145.63;5056466;28;20293;-38
2023/01/28 00:06:50;;;;;;;0.80;0.80;;;1.70;74.70;;;0.44;62.59;95149.94;5056621;28;20203;-37
2023/01/28 00:09:17;;;;;;;0.80;0.80;;;1.70;74.70;;;0.44;62.84;95142.22;5057433;28;20204;-38
2023/01/28 00:11:44;;;;;;;0.80;0.80;;;1.70;74.60;;;0.43;62.76;95143.97;5057303;28;20192;-38
2023/01/28 00:14:11;;;;;;;0.80;0.80;;;1.70;74.60;;;0.41;62.50;95147.63;5056312;28;20200;-40
2023/01/28 00:16:38;;;;;;;0.80;0.80;;;1.70;74.60;;;0.38;62.61;95153.84;5057320;28;20226;-39
2023/01/28 00:19:06;;;;;;;0.80;0.80;;;1.60;74.50;;;0.35;62.58;95154.09;5056151;28;20219;-36
2023/01/28 00:21:33;;;;;;;0.80;0.80;;;1.60;74.60;;;0.35;62.89;95156.66;5056497;28;20203;-36
2023/01/28 00:24:00;;;;;;;0.90;0.90;;;1.60;74.60;;;0.32;63.04;95162.09;5056126;28;20199;-35
2023/01/28 00:26:28;;;;;;;0.80;0.80;;;1.60;74.70;;;0.31;62.99;95158.69;5056138;28;20214;-38
2023/01/28 00:28:55;;;;;;;0.88;0.88;;;1.60;74.70;;;0.29;63.20;95163.16;5057061;28;20231;-38
2023/01/28 00:31:26;;;;;;;0.80;0.80;;;1.50;74.70;;;0.29;62.94;95162.31;5057184;28;20192;-35
2023/01/28 00:33:55;;;;;;;0.70;0.70;;;1.50;74.70;;;0.27;63.23;95162.44;5055982;28;20640;-38
2023/01/28 00:36:25;;;;;;;0.80;0.80;;;1.50;74.80;;;0.28;63.13;95156.34;5056864;28;20203;-36
2023/01/28 00:38:58;;;;;;;0.80;0.80;;;1.50;74.90;;;0.29;63.08;95162.31;5055840;28;20568;-37
2023/01/28 00:41:28;;;;;;;0.80;0.80;;;1.50;74.90;;;0.29;62.91;95159.75;5056048;28;20180;-39
2023/01/28 00:43:58;;;;;;;0.80;0.80;;;1.50;74.90;;;0.28;62.96;95153.78;5055644;28;20280;-38
2023/01/28 00:46:28;;;;;;;0.80;0.80;;;1.50;74.90;;;0.29;62.99;95155.41;5055789;28;20287;-34
2023/01/28 00:48:55;;;;;;;0.80;0.80;;;1.50;74.80;;;0.26;62.66;95158.22;5056663;28;20203;-35
2023/01/28 00:51:22;;;;;;;0.80;0.80;;;1.50;74.80;;;0.27;62.98;95161.63;5056608;28;20199;-35
2023/01/28 00:53:49;;;;;;;0.90;0.90;;;1.50;74.80;;;0.28;62.93;95155.53;5055433;28;20227;-40
2023/01/28 00:56:18;;;;;;;0.80;0.80;;;1.50;74.70;;;0.28;62.86;95152.94;5039065;28;20204;-40
2023/01/28 00:58:46;;;;;;;0.75;0.75;;;1.40;74.60;;;0.27;62.88;95149.56;5056445;28;20238;-36
2023/01/28 01:01:18;;;;;;;0.80;0.80;;;1.50;74.70;;;0.28;62.64;95152.94;5056575;28;20195;-34
2023/01/28 01:03:46;;;;;;;0.70;0.70;;;1.40;74.50;;;0.25;62.72;95161.75;5039148;28;20227;-37
2023/01/28 01:06:14;;;;;;;0.80;0.80;;;1.40;74.60;;;0.25;62.82;95163.53;5038873;28;20197;-39
2023/01/28 01:08:48;;;;;;;0.80;0.80;;;1.40;74.60;;;0.25;62.44;95158.38;5056277;28;20229;-40
2023/01/28 01:11:17;;;;;;;0.73;0.73;;;1.40;74.60;;;0.24;62.67;95157.53;5039893;28;20223;-37
2023/01/28 01:13:54;;;;;;;0.90;0.90;;;1.40;74.60;;;0.23;62.66;95162.81;5056163;28;20283;-40
2023/01/28 01:16:27;;;;;;;0.80;0.80;;;1.40;74.50;;;0.23;62.49;95155.91;5055231;28;20208;-39
2023/01/28 01:18:55;;;;;;;0.80;0.80;;;1.40;74.50;;;0.25;62.66;95155.78;5056471;28;20200;-34
2023/01/28 01:21:27;;;;;;;0.80;0.80;;;1.40;74.50;;;0.24;62.43;95159.28;5056073;28;20192;-34
2023/01/28 01:23:54;;;;;;;0.80;0.80;;;1.40;74.40;;;0.20;62.63;95156.13;5054847;28;20271;-35
2023/01/28 01:26:22;;;;;;;0.90;0.90;;;1.40;74.40;;;0.21;62.56;95162.94;5055289;28;20207;-38
2023/01/28 01:28:51;;;;;;;0.80;0.80;;;1.40;74.50;;;0.22;62.66;95156.84;5054939;28;20242;-39
2023/01/28 01:31:20;;;;;;;0.75;0.75;;;1.40;74.50;;;0.21;62.45;95162.09;5055645;28;20207;-38
2023/01/28 01:33:50;;;;;;;0.70;0.70;;;1.40;74.40;;;0.18;62.45;95158.00;5054891;28;20214;-36
2023/01/28 01:36:20;;;;;;;0.80;0.80;;;1.40;74.40;;;0.16;62.53;95157.34;5038285;28;20208;-34
2023/01/28 01:38:52;;;;;;;0.80;0.80;;;1.40;74.30;;;0.14;62.53;95165.19;5055827;28;20204;-38
2023/01/28 01:41:31;;;;;;;0.80;0.80;;;1.40;74.30;;;0.15;62.32;95166.00;5054741;28;20199;-37
2023/01/28 01:44:01;;;;;;;0.80;0.80;;;1.30;74.20;;;0.16;62.51;95167.66;5055705;28;20200;-40
2023/01/28 01:46:37;;;;;;;0.80;0.80;;;1.30;74.30;;;0.17;62.50;95171.84;5038131;28;20279;-38
2023/01/28 01:49:22;;;;;;;0.80;0.80;;;1.30;74.40;;;0.16;62.40;95167.66;5054780;28;20195;-39
2023/01/28 01:52:28;;;;;;;0.70;0.70;;;1.30;74.40;;;0.15;62.50;95166.00;5038032;28;20230;-40
2023/01/28 01:54:58;;;;;;;0.70;0.70;;;1.30;74.40;;;0.14;62.37;95169.53;5033770;28;20298;-34
2023/01/28 01:57:32;;;;;;;0.90;0.90;;;1.30;74.60;;;0.16;62.58;95165.06;5052333;28;20647;-39
2023/01/28 02:00:06;;;;;;;0.90;0.90;;;1.30;74.60;;;0.16;62.50;95167.66;5054334;28;20219;-40
2023/01/28 02:02:48;;;;;;;0.80;0.80;;;1.30;74.70;;;0.17;62.42;95166.69;5054070;28;20740;-34
2023/01/28 02:05:20;;;;;;;0.90;0.90;;;1.30;74.60;;;0.19;62.90;95166.59;5037882;28;20192;-35
2023/01/28 02:08:19;;;;;;;0.70;0.70;;;1.30;75.00;;;0.18;62.62;95168.34;5038470;28;20192;-39
2023/01/28 02:10:46;;;;;;;0.70;0.70;;;1.30;74.70;;;0.19;62.51;95164.00;5055076;28;20200;-34
2023/01/28 02:13:15;;;;;;;0.90;0.90;;;1.30;74.70;;;0.19;62.73;95171.75;5054143;28;20548;-37
2023/01/28 02:15:43;;;;;;;0.90;0.90;;;1.30;74.70;;;0.19;62.95;95171.75;5037703;28;20200;-38
2023/01/28 02:18:11;;;;;;;0.80;0.80;;;1.30;74.70;;;0.20;62.90;95173.38;5054167;28;20211;-40
2023/01/28 02:21:25;;;;;;;0.90;0.90;;;1.30;74.70;;;0.20;62.54;95181.94;5037960;28;20212;-40
2023/01/28 02:24:22;;;;;;;0.80;0.80;;;1.30;74.80;;;0.19;62.72;95179.47;5053928;28;20196;-40
2023/01/28 02:27:13;;;;;;;0.70;0.70;;;1.30;74.80;;;0.21;62.82;95177.59;5054108;28;20242;-34
2023/01/28 02:30:02;;;;;;;0.80;0.80;;;1.30;74.90;;;0.21;62.70;95187.91;5054040;28;20246;-40
2023/01/28 02:32:38;;;;;;;0.80;0.80;;;1.30;74.90;;;0.19;62.67;95185.44;5053995;28;20188;-40
2023/01/28 02:35:13;;;;;;;0.90;0.90;;;1.30;74.90;;;0.21;62.74;95188.75;5053852;28;20215;-39
2023/01/28 02:37:52;;;;;;;0.90;0.90;;;1.30;74.80;;;0.23;62.81;95191.19;5037557;28;20635;-38
2023/01/28 02:40:29;;;;;;;0.85;0.85;;;1.30;74.90;;;0.22;62.69;95189.53;5037278;28;20216;-40
2023/01/28 02:42:56;;;;;;;0.80;0.80;;;1.30;75.00;;;0.22;62.69;95189.53;5036694;28;20245;-37
2023/01/28 02:48:21;;;;;;;0.80;0.80;;;1.30;74.90;;;0.22;62.76;95186.97;5039950;28;20202;-40
2023/01/28 02:51:03;;;;;;;0.80;0.80;;;1.30;74.90;;;0.21;62.83;95195.63;5053938;28;20184;-39
2023/01/28 02:53:50;;;;;;;0.90;0.90;;;1.20;74.80;;;0.22;62.76;95195.53;5037095;28;20267;-36
2023/01/28 02:56:28;;;;;;;0.70;0.70;;;1.20;74.90;;;0.19;62.74;95187.22;5037672;28;20188;-39
2023/01/28 02:59:31;;;;;;;0.90;0.90;;;1.20;74.90;;;0.17;62.82;95186.50;5053630;28;20250;-40
2023/01/28 03:02:24;;;;;;;0.80;0.80;;;1.20;75.00;;;0.13;62.98;95188.50;5053572;28;20196;-40
2023/01/28 03:05:00;;;;;;;0.77;0.77;;;1.10;75.10;;;0.14;62.96;95187.56;5074453;28;20171;-35
2023/01/28 03:07:30;;;;;;;0.80;0.80;;;1.20;75.20;;;0.13;63.15;95191.09;5040476;28;20294;-34
2023/01/28 03:10:04;;;;;;;0.80;0.80;;;1.10;75.20;;;0.11;63.17;95186.06;5057427;28;20196;-34
2023/01/28 03:36:49;;;;;;;0.70;0.70;;;0.90;76.40;;;-0.05;64.41;95185.63;5074530;28;20266;-36
2023/01/28 03:39:36;;;;;;;0.70;0.70;;;0.90;76.40;;;-0.04;64.31;95184.69;5062343;28;20261;-40
2023/01/28 03:42:12;;;;;;;0.70;0.70;;;0.90;76.50;;;-0.03;64.58;95186.31;5074608;28;20200;-40
2023/01/28 03:44:52;;;;;;;0.80;0.80;;;0.90;76.60;;;-0.07;64.45;95182.34;5056459;28;20297;-39
2023/01/28 03:47:25;;;;;;;0.80;0.80;;;0.80;76.60;;;-0.05;64.78;95189.03;5056526;28;20647;-34
2023/01/28 03:49:55;;;;;;;0.80;0.80;;;0.80;76.80;;;-0.04;64.53;95189.84;5056879;28;20499;-38
2023/01/28 03:52:30;;;;;;;0.80;0.80;;;0.70;76.90;;;-0.06;64.51;95194.28;5074155;28;20188;-37
2023/01/28 03:55:16;;;;;;;0.70;0.70;;;0.70;76.90;;;-0.05;64.55;95201.91;5076308;28;20207;-39
2023/01/28 03:57:44;;;;;;;0.80;0.80;;;0.80;76.90;;;-0.03;64.52;95199.22;5060008;28;20286;-37
2023/01/28 04:00:13;;;;;;;0.80;0.80;;;0.90;77.00;;;-0.01;64.68;95194.78;5060166;28;20211;-38
2023/01/28 04:02:40;;;;;;;0.80;0.80;;;0.90;76.80;;;0.01;64.85;95195.44;5077596;28;20231;-36
2023/01/28 04:05:14;;;;;;;0.73;0.73;;;0.80;76.90;;;0.02;64.93;95191.13;5059891;28;20589;-34
2023/01/28 04:07:46;;;;;;;0.80;0.80;;;0.80;77.00;;;0.03;64.91;95200.50;5059898;28;20259;-40
2023/01/28 04:10:40;;;;;;;0.80;0.80;;;0.80;77.10;;;0.03;64.68;95190.19;5074221;28;20294;-34
2023/01/28 04:13:21;;;;;;;0.80;0.80;;;0.80;77.10;;;0.03;64.97;95192.78;5045024;28;20287;-34
2023/01/28 04:15:48;;;;;;;0.80;0.80;;;0.80;77.30;;;0.06;65.00;95192.50;5059662;28;20195;-40
2023/01/28 04:18:16;;;;;;;0.80;0.80;;;0.80;77.30;;;0.09;64.73;95192.28;5059614;28;20648;-37
2023/01/28 04:20:44;;;;;;;0.80;0.80;;;0.90;77.20;;;0.09;65.17;95192.28;5059468;28;20219;-38
2023/01/28 04:23:11;;;;;;;0.80;0.80;;;1.00;77.20;;;0.13;64.71;95197.06;5059563;28;20199;-35
2023/01/28 04:25:38;;;;;;;0.70;0.70;;;1.00;77.20;;;0.16;65.01;95198.59;5059590;28;20210;-39
2023/01/28 04:28:08;;;;;;;0.80;0.80;;;1.00;77.20;;;0.20;64.98;95201.75;5060161;28;20195;-39
2023/01/28 04:30:35;;;;;;;0.70;0.70;;;1.10;77.20;;;0.22;64.93;95200.69;5059359;28;20730;-38
2023/01/28 04:33:23;;;;;;;0.70;0.70;;;1.20;77.10;;;0.23;64.90;95194.59;5059339;28;20264;-37
2023/01/28 04:36:05;;;;;;;0.80;0.80;;;1.20;77.10;;;0.25;65.08;95204.78;5059631;28;20529;-36
2023/01/28 04:39:04;;;;;;;0.90;0.90;;;1.20;77.00;;;0.27;65.07;95202.88;5051707;28;20231;-35
2023/01/28 04:41:37;;;;;;;0.70;0.70;;;1.30;77.00;;;0.26;65.13;95196.94;5077159;28;20595;-40
2023/01/28 04:44:13;;;;;;;0.80;0.80;;;1.30;77.00;;;0.27;65.44;95195.16;5076929;28;20194;-40
2023/01/28 04:46:54;;;;;;;0.90;0.90;;;1.30;77.10;;;0.27;65.02;95195.16;5059152;28;20198;-35
2023/01/28 04:49:42;;;;;;;0.75;0.75;;;1.30;77.00;;;0.26;65.46;95199.50;5072790;28;20643;-35
2023/01/28 04:52:25;;;;;;;0.90;0.90;;;1.30;77.00;;;0.28;65.10;95204.53;5076892;28;20199;-40
2023/01/28 04:55:16;;;;;;;0.80;0.80;;;1.30;76.90;;;0.26;65.23;95201.28;5070794;28;20211;-34
2023/01/28 04:57:47;;;;;;;0.80;0.80;;;1.30;76.90;;;0.29;65.14;95209.59;5059889;28;20580;-34
2023/01/28 05:00:15;;;;;;;0.80;0.80;;;1.40;77.00;;;0.31;64.99;95210.28;5058703;28;20313;-35
2023/01/28 05:02:42;;;;;;;0.80;0.80;;;1.40;76.90;;;0.36;65.24;95209.91;5076428;28;20274;-36
2023/01/28 05:05:09;;;;;;;0.80;0.80;;;1.40;76.90;;;0.36;65.04;95206.53;5058128;28;20591;-37
2023/01/28 05:07:53;;;;;;;0.80;0.80;;;1.40;76.90;;;0.36;65.34;95204.75;5058961;28;20272;-40
2023/01/28 05:10:21;;;;;;;0.88;0.88;;;1.40;77.00;;;0.40;65.25;95208.72;5042099;28;20538;-36
2023/01/28 05:12:49;;;;;;;0.70;0.70;;;1.40;77.00;;;0.40;65.11;95215.66;5058599;28;20401;-40
2023/01/28 05:15:19;;;;;;;0.90;0.90;;;1.40;77.10;;;0.40;65.25;95208.72;5058395;28;20238;-40
2023/01/28 05:17:47;;;;;;;0.70;0.70;;;1.30;77.10;;;0.40;65.36;95210.50;5059148;28;20203;-40
2023/01/28 05:20:17;;;;;;;0.88;0.88;;;1.40;77.20;;;0.40;65.40;95213.06;5058453;28;20243;-39
2023/01/28 05:22:47;;;;;;;0.80;0.80;;;1.40;77.20;;;0.42;65.12;95216.38;5058458;28;20208;-40
2023/01/28 05:25:18;;;;;;;0.80;0.80;;;1.40;77.10;;;0.43;65.25;95218.00;5042648;28;20203;-40
2023/01/28 05:27:51;;;;;;;0.75;0.75;;;1.50;77.00;;;0.45;65.13;95211.78;5041960;28;20223;-39
2023/01/28 05:30:19;;;;;;;0.80;0.80;;;1.50;77.00;;;0.45;65.14;95216.09;5058254;28;20252;-39
2023/01/28 05:32:47;;;;;;;0.80;0.80;;;1.50;77.00;;;0.46;65.32;95215.16;5058242;28;20298;-39
2023/01/28 05:35:17;;;;;;;0.82;0.82;;;1.50;77.00;;;0.46;65.13;95213.41;5058079;28;20216;-40
2023/01/28 05:37:45;;;;;;;0.70;0.70;;;1.50;77.10;;;0.48;65.22;95219.25;5041782;28;20214;-39
2023/01/28 05:40:12;;;;;;;0.80;0.80;;;1.50;77.10;;;0.49;65.10;95227.84;5041573;28;20245;-39
2023/01/28 05:42:40;;;;;;;0.80;0.80;;;1.50;77.10;;;0.50;65.02;95229.47;5075528;28;20677;-40
2023/01/28 05:45:20;;;;;;;0.70;0.70;;;1.50;77.10;;;0.52;65.28;95230.16;5057965;28;20191;-37
2023/01/28 05:48:11;;;;;;;0.70;0.70;;;1.50;77.10;;;0.51;65.37;95227.72;5056146;28;20207;-39
2023/01/28 05:50:58;;;;;;;0.70;0.70;;;1.60;77.10;;;0.47;65.17;95227.94;5064935;28;20207;-37
2023/01/28 05:53:34;;;;;;;0.70;0.70;;;1.50;77.00;;;0.47;65.29;95227.13;5057875;28;20195;-39
2023/01/28 05:56:01;;;;;;;0.70;0.70;;;1.50;77.00;;;0.50;65.37;95233.81;5057644;28;20542;-38
2023/01/28 05:58:31;;;;;;;0.80;0.80;;;1.60;77.10;;;0.48;65.65;95234.75;5057804;28;20329;-40
2023/01/28 06:01:01;;;;;;;0.80;0.80;;;1.60;77.10;;;0.48;65.39;95237.31;5025744;28;20570;-37
2023/01/28 06:03:37;;;;;;;0.80;0.80;;;1.60;77.10;;;0.51;65.42;95238.03;5057554;28;20247;-39
2023/01/28 06:06:05;;;;;;;0.90;0.90;;;1.60;77.10;;;0.51;65.40;95233.69;5057448;28;20210;-40
2023/01/28 06:08:32;;;;;;;0.80;0.80;;;1.50;77.10;;;0.52;65.49;95232.75;5075472;28;20210;-37
2023/01/28 06:10:59;;;;;;;0.80;0.80;;;1.50;77.20;;;0.55;65.49;95237.69;5057531;28;20536;-37
2023/01/28 06:13:31;;;;;;;0.80;0.80;;;1.60;77.30;;;0.55;65.81;95231.69;5057546;28;20194;-39
2023/01/28 06:16:17;;;;;;;0.80;0.80;;;1.60;77.30;;;0.50;65.68;95239.81;5074927;28;20634;-40
2023/01/28 06:18:57;;;;;;;0.70;0.70;;;1.50;77.30;;;0.46;65.84;95244.38;5059478;28;20187;-38
2023/01/28 06:21:24;;;;;;;0.90;0.90;;;1.50;77.50;;;0.46;66.08;95248.72;5057379;28;20249;-38
2023/01/28 06:23:51;;;;;;;0.90;0.90;;;1.50;77.70;;;0.48;66.14;95255.38;5057403;28;20199;-37
2023/01/28 06:26:18;;;;;;;0.80;0.80;;;1.50;77.70;;;0.47;66.15;95243.41;5074843;28;20188;-39
2023/01/28 06:28:46;;;;;;;0.70;0.70;;;1.50;77.80;;;0.50;66.05;95246.72;5040918;28;20191;-39
2023/01/28 06:31:13;;;;;;;0.80;0.80;;;1.40;77.90;;;0.50;66.55;95260.44;5074930;28;20706;-39
2023/01/28 06:33:40;;;;;;;0.80;0.80;;;1.40;78.00;;;0.47;66.66;95256.31;5074887;28;20209;-39
2023/01/28 06:36:07;;;;;;;0.70;0.70;;;1.50;78.00;;;0.51;66.45;95263.84;5074706;28;20199;-40
2023/01/28 06:38:35;;;;;;;0.70;0.70;;;1.50;78.10;;;0.52;66.39;95268.88;5075122;28;20279;-39
2023/01/28 06:41:02;;;;;;;0.80;0.80;;;1.50;78.10;;;0.54;66.57;95267.00;5075007;28;20230;-39
2023/01/28 06:43:29;;;;;;;0.80;0.80;;;1.50;78.20;;;0.57;66.64;95277.06;5074818;28;20191;-38
2023/01/28 06:45:57;;;;;;;0.80;0.80;;;1.60;78.20;;;0.58;66.76;95276.13;5057247;28;20191;-39
2023/01/28 06:48:26;;;;;;;0.70;0.70;;;1.60;78.20;;;0.64;66.56;95274.84;5074758;28;20225;-39
2023/01/28 06:50:53;;;;;;;0.75;0.75;;;1.60;78.30;;;0.68;66.63;95278.00;5074979;28;20233;-38
2023/01/28 06:53:21;;;;;;;0.90;0.90;;;1.70;78.30;;;0.71;66.40;95278.56;5074696;28;20206;-39
2023/01/28 06:55:48;;;;;;;0.80;0.80;;;1.70;78.20;;;0.74;66.57;95277.50;5057468;28;20209;-38
2023/01/28 06:58:16;;;;;;;0.90;0.90;;;1.70;78.20;;;0.78;66.32;95277.16;5075457;28;20633;-38
2023/01/28 07:00:44;;;;;;;0.80;0.80;;;1.80;78.20;;;0.79;66.43;95272.78;5057354;28;20211;-40
2023/01/28 07:03:14;;;;;;;0.80;0.80;;;1.80;78.20;;;0.81;66.34;95278.66;5086502;28;20245;-38
2023/01/28 07:05:41;;;;;;;0.80;0.80;;;1.80;78.20;;;0.85;66.20;95292.16;5075055;28;20192;-39
2023/01/28 07:08:08;;;;;;;0.80;0.80;;;1.80;78.20;;;0.89;66.44;95289.19;5074755;28;20524;-36
2023/01/28 07:10:35;;;;;;;0.80;0.80;;;1.80;78.20;;;0.92;66.26;95286.34;5081594;28;20223;-41
2023/01/28 07:13:02;;;;;;;0.70;0.70;;;1.80;78.20;;;0.95;66.50;95285.28;5077832;28;20186;-38
2023/01/28 07:15:30;;;;;;;0.70;0.70;;;1.90;78.20;;;0.97;66.17;95296.31;5077922;28;20226;-38
2023/01/28 07:17:57;;;;;;;0.70;0.70;;;2.00;78.30;;;1.02;65.99;95295.97;5075005;28;20509;-40
2023/01/28 07:20:25;;;;;;;0.90;0.90;;;2.00;78.20;;;1.06;66.31;95299.94;5074564;28;20218;-32
2023/01/28 07:22:53;;;;;;;0.88;0.88;;;2.00;78.20;;;1.08;66.53;95303.22;5056614;28;20516;-38
2023/01/28 07:25:20;;;;;;;0.77;0.77;;;2.10;78.20;;;1.10;66.50;95298.75;5041069;28;20274;-38
2023/01/28 07:27:50;;;;;;;0.80;0.80;;;2.10;78.20;;;1.14;66.10;95294.97;5075272;28;20195;-39
2023/01/28 07:30:19;;;;;;;0.80;0.80;;;2.10;78.10;;;1.18;66.27;95303.28;5078562;28;20193;-46
2023/01/28 07:32:51;;;;;;;0.70;0.70;;;2.10;78.10;;;1.20;66.15;95302.22;5078631;28;20627;-36
2023/01/28 07:35:19;;;;;;;0.90;0.90;;;2.20;78.20;;;1.23;66.01;95299.41;5078723;28;20226;-40
2023/01/28 07:37:55;;;;;;;0.80;0.80;;;2.20;78.10;;;1.27;65.83;95308.53;5061174;28;20207;-40
2023/01/28 07:40:23;;;;;;;0.90;0.90;;;2.20;78.10;;;1.31;66.17;95306.53;5078576;28;20281;-31
2023/01/28 07:42:51;;;;;;;0.90;0.90;;;2.30;78.10;;;1.33;66.15;95308.97;5044947;28;20199;-33
2023/01/28 07:45:24;;;;;;;0.70;0.70;;;2.30;78.10;;;1.34;66.10;95306.25;5060528;28;20195;-32
2023/01/28 07:48:00;;;;;;;0.80;0.80;;;2.30;78.10;;;1.38;65.70;95310.25;5078539;28;20279;-40
2023/01/28 07:50:29;;;;;;;0.80;0.80;;;2.30;78.10;;;1.40;66.08;95310.13;5078685;28;20179;-39
2023/01/28 07:52:57;;;;;;;0.90;0.90;;;2.40;78.10;;;1.44;66.18;95309.75;5078321;28;20261;-37
2023/01/28 07:55:25;;;;;;;0.80;0.80;;;2.40;78.10;;;1.47;66.11;95308.66;5087331;28;20203;-33
2023/01/28 07:57:55;;;;;;;0.70;0.70;;;2.40;78.10;;;1.48;66.05;95312.91;5081832;28;20195;-33
2023/01/28 08:00:25;;;;;;;0.90;0.90;;;2.40;78.10;;;1.52;65.96;95314.28;5060399;28;20555;-39
2023/01/28 08:03:14;;;;;;;0.80;0.80;;;2.40;78.10;;;1.56;65.65;95314.84;5084619;28;20233;-37
2023/01/28 08:05:47;;;;;;;0.80;0.80;;;2.40;78.10;;;1.58;65.82;95316.34;5079847;28;20191;-46
2023/01/28 08:08:15;;;;;;;0.80;0.80;;;2.40;78.00;;;1.64;65.81;95319.41;5078823;28;20190;-40
2023/01/28 08:10:45;;;;;;;0.70;0.70;;;2.50;78.80;;;1.64;65.69;95322.00;5069352;28;20209;-39
2023/01/28 08:13:14;;;;;;;0.80;0.80;;;2.50;77.80;;;1.66;65.72;95320.06;5072315;28;20195;-40
2023/01/28 08:15:41;;;;;;;0.90;0.90;;;2.50;77.80;;;1.69;65.51;95322.44;5081611;28;20229;-38
2023/01/28 08:18:12;;;;;;;0.80;0.80;;;2.60;77.80;;;1.69;65.34;95322.44;5087946;28;20249;-37
2023/01/28 08:20:43;;;;;;;0.80;0.80;;;2.70;77.80;;;1.71;65.45;95325.69;5098360;28;20715;-40
2023/01/28 08:23:18;;;;;;;0.80;0.80;;;2.60;77.70;;;1.72;65.76;95319.56;5093972;28;20215;-41
2023/01/28 08:25:46;;;;;;;0.70;0.70;;;2.60;77.70;;;1.73;65.56;95322.06;5073290;28;20195;-39
2023/01/28 08:28:15;;;;;;;0.80;0.80;;;2.70;77.80;;;1.75;65.68;95324.50;5077760;28;20273;-39
2023/01/28 08:30:42;;;;;;;0.80;0.80;;;2.70;77.80;;;1.78;65.98;95323.44;5077730;28;20214;-39
2023/01/28 08:33:12;;;;;;;0.80;0.80;;;2.70;77.80;;;1.82;65.50;95317.88;5077412;28;20207;-39
2023/01/28 08:35:40;;;;;;;0.80;0.80;;;2.80;77.80;;;1.88;65.49;95334.63;5043545;28;20218;-40
2023/01/28 08:38:10;;;;;;;0.75;0.75;;;2.80;77.80;;;1.91;65.54;95324.03;5043952;28;20665;-40
2023/01/28 08:40:37;;;;;;;0.80;0.80;;;2.80;77.70;;;1.97;65.64;95330.47;5076364;28;20294;-40
2023/01/28 08:43:04;;;;;;;0.80;0.80;;;2.90;77.70;;;2.02;65.60;95328.31;5077141;28;20568;-41
2023/01/28 08:45:32;;;;;;;0.70;0.70;;;2.90;77.70;;;2.11;65.62;95326.72;5077168;28;20227;-39
2023/01/28 08:48:05;;;;;;;0.70;0.70;;;3.00;77.80;;;2.14;65.60;95324.69;5059855;28;20198;-37
